createdAt,value
2018-03-08T00:00:28.903Z,99.90
2018-03-08T00:02:56.510Z,99.90
2018-03-08T00:05:24.122Z,99.90
2018-03-08T00:07:51.731Z,99.90
2018-03-08T00:16:15.536Z,99.90
2018-03-08T00:18:43.903Z,99.90
2018-03-08T00:21:12.254Z,99.90
2018-03-08T00:23:39.833Z,99.90
2018-03-08T00:26:08.232Z,99.90
2018-03-08T00:28:35.806Z,99.90
2018-03-08T00:31:03.398Z,99.90
2018-03-08T00:33:30.951Z,99.90
2018-03-08T00:35:58.539Z,99.90
2018-03-08T00:38:26.114Z,99.90
2018-03-08T00:40:54.528Z,99.90
2018-03-08T00:43:22.859Z,99.90
2018-03-08T00:45:50.504Z,99.90
2018-03-08T00:48:18.096Z,99.90
2018-03-08T00:50:46.448Z,99.90
2018-03-08T00:53:14.049Z,99.90
2018-03-08T00:55:41.644Z,99.90
2018-03-08T00:58:09.268Z,99.90
2018-03-08T01:00:36.853Z,99.90
2018-03-08T01:03:04.458Z,99.90
2018-03-08T01:05:32.076Z,99.90
2018-03-08T01:07:59.677Z,99.90
2018-03-08T01:10:27.261Z,99.90
2018-03-08T01:12:55.576Z,99.90
2018-03-08T01:15:23.154Z,99.90
2018-03-08T01:17:50.747Z,99.90
2018-03-08T01:20:19.117Z,99.90
2018-03-08T01:22:46.694Z,99.90
2018-03-08T01:25:15.074Z,99.90
2018-03-08T01:27:43.387Z,99.90
2018-03-08T01:30:10.987Z,99.90
2018-03-08T01:32:38.538Z,99.90
2018-03-08T01:35:06.198Z,99.90
2018-03-08T01:37:33.819Z,99.90
2018-03-08T01:40:01.388Z,99.90
2018-03-08T01:42:28.990Z,99.90
2018-03-08T01:44:56.614Z,99.90
2018-03-08T01:47:24.158Z,99.90
2018-03-08T01:49:51.730Z,99.90
2018-03-08T01:52:19.329Z,99.90
2018-03-08T01:54:46.923Z,99.90
2018-03-08T01:57:14.532Z,99.90
2018-03-08T01:59:42.167Z,99.90
2018-03-08T02:02:10.528Z,99.90
2018-03-08T02:04:38.097Z,99.90
2018-03-08T02:07:05.683Z,99.90
2018-03-08T02:09:33.290Z,99.90
2018-03-08T02:12:01.641Z,99.90
2018-03-08T02:14:29.195Z,99.90
2018-03-08T02:16:56.784Z,99.90
2018-03-08T02:19:25.133Z,99.90
2018-03-08T02:21:52.728Z,99.90
2018-03-08T02:24:20.307Z,99.90
2018-03-08T02:26:48.687Z,99.90
2018-03-08T02:29:16.269Z,99.90
2018-03-08T02:31:43.837Z,99.90
2018-03-08T02:34:11.407Z,99.90
2018-03-08T02:36:39.029Z,99.90
2018-03-08T02:39:06.635Z,99.90
2018-03-08T02:41:34.192Z,99.90
2018-03-08T02:44:01.824Z,99.90
2018-03-08T02:46:29.387Z,99.90
2018-03-08T02:48:56.994Z,99.90
2018-03-08T02:51:25.376Z,99.90
2018-03-08T02:53:53.778Z,99.90
2018-03-08T02:56:21.375Z,99.90
2018-03-08T02:58:49.017Z,99.90
2018-03-08T03:01:16.585Z,99.90
2018-03-08T03:03:44.208Z,99.90
2018-03-08T03:06:11.769Z,99.90
2018-03-08T03:08:39.364Z,99.90
2018-03-08T03:11:06.924Z,99.90
2018-03-08T03:13:34.490Z,99.90
2018-03-08T03:16:02.027Z,99.90
2018-03-08T03:18:29.627Z,99.90
2018-03-08T03:20:57.199Z,99.90
2018-03-08T03:23:24.815Z,99.90
2018-03-08T03:25:52.374Z,99.90
2018-03-08T03:28:19.990Z,99.90
2018-03-08T03:30:48.353Z,99.90
2018-03-08T03:33:15.930Z,99.90
2018-03-08T03:35:44.294Z,99.90
2018-03-08T03:38:11.898Z,99.90
2018-03-08T03:40:39.494Z,99.90
2018-03-08T03:43:07.040Z,99.90
2018-03-08T03:45:34.676Z,99.90
2018-03-08T03:48:02.286Z,99.90
2018-03-08T03:50:29.831Z,99.90
2018-03-08T03:52:57.397Z,99.90
2018-03-08T03:55:25.023Z,99.90
2018-03-08T03:57:52.638Z,99.90
2018-03-08T04:00:20.266Z,99.90
2018-03-08T04:02:47.837Z,99.90
2018-03-08T04:05:15.420Z,99.90
2018-03-08T04:07:43.037Z,99.90
2018-03-08T04:10:10.615Z,99.90
2018-03-08T04:12:38.198Z,99.90
2018-03-08T04:15:05.831Z,99.90
2018-03-08T04:17:33.451Z,99.90
2018-03-08T04:20:01.051Z,99.90
2018-03-08T04:22:28.622Z,99.90
2018-03-08T04:24:56.219Z,99.90
2018-03-08T04:30:23.915Z,99.90
2018-03-08T04:32:51.479Z,99.90
2018-03-08T04:35:19.086Z,99.90
2018-03-08T04:37:46.689Z,99.90
2018-03-08T04:40:14.298Z,99.90
2018-03-08T04:42:41.850Z,99.90
2018-03-08T04:45:09.455Z,99.90
2018-03-08T04:47:37.842Z,99.90
2018-03-08T04:50:06.187Z,99.90
2018-03-08T04:52:33.785Z,99.90
2018-03-08T04:55:01.370Z,99.90
2018-03-08T04:57:28.914Z,99.90
2018-03-08T04:59:56.492Z,99.90
2018-03-08T05:02:25.550Z,99.90
2018-03-08T05:04:53.149Z,99.90
2018-03-08T05:07:20.738Z,99.90
2018-03-08T05:09:48.295Z,99.90
2018-03-08T05:12:15.899Z,99.90
2018-03-08T05:14:43.470Z,99.90
2018-03-08T05:17:11.075Z,99.90
2018-03-08T05:19:38.710Z,99.90
2018-03-08T05:22:06.319Z,99.90
2018-03-08T05:24:33.861Z,99.90
2018-03-08T05:27:01.410Z,99.90
2018-03-08T05:29:29.029Z,99.90
2018-03-08T05:31:56.616Z,99.90
2018-03-08T05:34:24.179Z,99.90
2018-03-08T05:36:51.831Z,99.90
2018-03-08T05:51:08.171Z,99.90
2018-03-08T05:53:47.065Z,99.90
2018-03-08T05:56:15.566Z,99.90
2018-03-08T06:01:45.665Z,99.90
2018-03-08T06:04:17.165Z,99.90
2018-03-08T06:06:55.830Z,99.90
2018-03-08T06:09:23.405Z,99.90
2018-03-08T06:11:50.914Z,99.90
2018-03-08T06:14:18.518Z,99.90
2018-03-08T06:16:46.129Z,99.90
2018-03-08T06:19:13.719Z,99.90
2018-03-08T06:21:41.370Z,99.90
2018-03-08T06:24:08.983Z,99.90
2018-03-08T06:26:36.595Z,99.90
2018-03-08T06:29:17.636Z,99.90
2018-03-08T06:31:45.991Z,99.90
2018-03-08T06:34:13.590Z,99.90
2018-03-08T06:36:41.190Z,99.90
2018-03-08T06:39:08.769Z,99.90
2018-03-08T06:41:36.384Z,99.90
2018-03-08T06:44:03.942Z,99.90
2018-03-08T06:46:31.604Z,99.90
2018-03-08T06:48:59.202Z,99.70
2018-03-08T06:51:26.761Z,99.40
2018-03-08T06:53:54.395Z,99.00
2018-03-08T06:56:22.762Z,99.50
2018-03-08T06:58:50.384Z,99.20
2018-03-08T07:01:18.775Z,99.10
2018-03-08T07:03:47.121Z,99.40
2018-03-08T07:06:14.697Z,99.30
2018-03-08T07:08:43.059Z,98.20
2018-03-08T07:11:10.639Z,98.10
2018-03-08T07:19:40.389Z,95.20
2018-03-08T07:22:14.061Z,94.70
2018-03-08T07:24:41.640Z,94.60
2018-03-08T07:27:09.279Z,93.30
2018-03-08T07:29:36.879Z,92.90
2018-03-08T07:32:23.697Z,91.00
2018-03-08T07:34:51.272Z,89.10
2018-03-08T07:37:18.881Z,90.20
2018-03-08T07:39:46.430Z,92.50
2018-03-08T07:42:14.060Z,93.40
2018-03-08T07:44:41.621Z,90.80
2018-03-08T07:47:09.225Z,83.50
2018-03-08T07:49:37.595Z,89.90
2018-03-08T07:52:05.219Z,89.80
2018-03-08T07:54:54.286Z,90.10
2018-03-08T07:57:21.843Z,91.00
2018-03-08T07:59:49.422Z,90.00
2018-03-08T08:02:18.012Z,87.10
2018-03-08T08:04:57.527Z,89.60
2018-03-08T08:07:36.879Z,88.10
2018-03-08T08:10:04.451Z,87.50
2018-03-08T08:12:38.618Z,83.20
2018-03-08T08:20:55.866Z,79.70
2018-03-08T08:23:23.465Z,79.40
2018-03-08T08:25:51.065Z,75.80
2018-03-08T08:28:19.406Z,66.50
2018-03-08T08:30:47.031Z,66.50
2018-03-08T08:33:14.583Z,66.60
2018-03-08T08:35:42.970Z,72.70
2018-03-08T08:38:10.569Z,72.70
2018-03-08T08:40:38.179Z,72.50
2018-03-08T08:43:05.744Z,68.10
2018-03-08T08:51:32.435Z,60.20
2018-03-08T08:54:00.066Z,60.90
2018-03-08T08:56:35.554Z,51.30
2018-03-08T08:59:03.200Z,51.50
2018-03-08T09:07:32.228Z,52.40
2018-03-08T09:09:59.809Z,52.30
2018-03-08T09:12:27.401Z,55.60
2018-03-08T09:14:55.003Z,50.60
2018-03-08T09:17:22.607Z,56.50
2018-03-08T09:19:50.174Z,58.60
2018-03-08T09:22:17.756Z,57.00
2018-03-08T09:24:46.131Z,54.40
2018-03-08T09:27:13.684Z,54.20
2018-03-08T09:29:41.265Z,50.80
2018-03-08T09:32:09.639Z,52.80
2018-03-08T09:34:37.978Z,47.20
2018-03-08T09:37:05.641Z,47.20
2018-03-08T09:39:33.184Z,47.80
2018-03-08T09:42:00.792Z,44.80
2018-03-08T09:44:29.189Z,47.40
2018-03-08T09:46:57.555Z,47.00
2018-03-08T09:49:25.876Z,44.90
2018-03-08T09:51:53.468Z,45.00
2018-03-08T09:54:21.063Z,45.60
2018-03-08T09:56:48.703Z,48.50
2018-03-08T10:02:34.331Z,48.60
2018-03-08T10:05:01.962Z,50.20
2018-03-08T10:07:29.535Z,48.40
2018-03-08T10:09:57.911Z,46.90
2018-03-08T10:12:26.278Z,47.40
2018-03-08T10:14:53.900Z,47.30
2018-03-08T10:26:13.712Z,47.30
2018-03-08T10:28:41.316Z,47.30
2018-03-08T10:31:08.905Z,46.90
2018-03-08T10:33:36.525Z,48.60
2018-03-08T10:36:04.087Z,44.00
2018-03-08T10:38:31.671Z,44.00
2018-03-08T10:40:59.323Z,44.30
2018-03-08T10:43:26.997Z,47.00
2018-03-08T10:45:54.646Z,52.30
2018-03-08T10:48:22.279Z,56.40
2018-03-08T10:50:49.888Z,58.90
2018-03-08T10:53:17.511Z,62.00
2018-03-08T10:55:45.124Z,63.00
2018-03-08T10:58:13.507Z,58.30
2018-03-08T11:00:47.135Z,58.20
2018-03-08T11:03:14.727Z,58.60
2018-03-08T11:05:47.248Z,55.30
2018-03-08T11:08:14.889Z,57.80
2018-03-08T11:10:43.256Z,52.70
2018-03-08T11:13:11.616Z,52.50
2018-03-08T11:15:45.130Z,51.60
2018-03-08T11:18:12.769Z,46.30
2018-03-08T11:20:40.360Z,47.00
2018-03-08T11:23:07.988Z,47.40
2018-03-08T11:25:35.623Z,50.30
2018-03-08T11:28:03.224Z,48.30
2018-03-08T11:30:30.817Z,49.30
2018-03-08T11:32:59.204Z,48.80
2018-03-08T11:35:26.759Z,48.70
2018-03-08T11:37:55.153Z,48.90
2018-03-08T11:40:22.732Z,48.70
2018-03-08T11:42:50.315Z,49.30
2018-03-08T11:45:17.915Z,48.30
2018-03-08T11:47:46.293Z,47.80
2018-03-08T11:50:14.661Z,49.30
2018-03-08T11:52:43.035Z,52.60
2018-03-08T11:55:11.407Z,53.50
2018-03-08T11:57:42.445Z,53.40
2018-03-08T12:00:10.039Z,51.90
2018-03-08T12:02:37.619Z,53.20
2018-03-08T12:05:05.239Z,52.10
2018-03-08T12:07:33.600Z,51.40
2018-03-08T12:10:01.194Z,51.30
2018-03-08T12:12:28.781Z,52.80
2018-03-08T12:14:56.359Z,51.40
2018-03-08T12:17:23.960Z,51.30
2018-03-08T12:19:52.336Z,48.40
2018-03-08T12:22:20.660Z,47.40
2018-03-08T12:24:48.246Z,47.30
2018-03-08T12:27:15.849Z,45.70
2018-03-08T12:29:43.476Z,43.80
2018-03-08T12:32:11.099Z,42.50
2018-03-08T12:34:39.660Z,42.50
2018-03-08T12:37:07.281Z,43.30
2018-03-08T12:39:34.866Z,44.70
2018-03-08T12:42:03.219Z,44.60
2018-03-08T12:44:30.787Z,44.60
2018-03-08T12:46:59.339Z,41.50
2018-03-08T12:49:26.968Z,40.30
2018-03-08T12:51:54.528Z,42.00
2018-03-08T12:54:22.163Z,38.90
2018-03-08T12:56:50.514Z,41.20
2018-03-08T13:05:12.767Z,43.80
2018-03-08T13:07:40.391Z,43.80
2018-03-08T13:10:07.987Z,44.00
2018-03-08T13:12:35.547Z,44.00
2018-03-08T13:15:03.164Z,42.70
2018-03-08T13:17:30.720Z,42.00
2018-03-08T13:19:58.364Z,40.60
2018-03-08T13:22:26.719Z,41.80
2018-03-08T13:30:48.461Z,41.80
2018-03-08T13:33:23.800Z,41.60
2018-03-08T13:35:51.415Z,40.70
2018-03-08T13:38:31.019Z,42.80
2018-03-08T13:40:58.645Z,42.80
2018-03-08T13:43:26.209Z,42.80
2018-03-08T13:45:55.194Z,40.70
2018-03-08T13:48:22.761Z,38.40
2018-03-08T13:50:50.300Z,37.60
2018-03-08T13:53:18.590Z,42.30
2018-03-08T13:55:46.126Z,42.20
2018-03-08T13:58:13.646Z,43.60
2018-03-08T14:00:41.181Z,43.60
2018-03-08T14:03:08.727Z,44.20
2018-03-08T14:05:36.260Z,42.80
2018-03-08T14:08:04.563Z,41.20
2018-03-08T14:10:32.103Z,41.10
2018-03-08T14:13:00.475Z,41.70
2018-03-08T14:15:28.868Z,42.40
2018-03-08T14:17:57.189Z,44.60
2018-03-08T14:20:24.767Z,44.60
2018-03-08T14:22:52.356Z,43.80
2018-03-08T14:25:19.932Z,43.60
2018-03-08T14:27:47.536Z,43.20
2018-03-08T14:30:15.139Z,44.00
2018-03-08T14:32:43.499Z,41.20
2018-03-08T14:35:11.861Z,41.00
2018-03-08T14:37:39.463Z,41.00
2018-03-08T14:40:07.071Z,42.00
2018-03-08T14:42:34.637Z,41.70
2018-03-08T14:45:02.232Z,42.00
2018-03-08T14:47:29.812Z,42.40
2018-03-08T14:49:57.430Z,42.20
2018-03-08T14:52:25.020Z,41.40
2018-03-08T14:54:53.603Z,42.00
2018-03-08T14:57:21.214Z,42.00
2018-03-08T14:59:48.837Z,41.70
2018-03-08T15:05:23.380Z,43.30
2018-03-08T15:07:51.020Z,43.80
2018-03-08T15:10:18.633Z,44.90
2018-03-08T15:12:46.240Z,45.70
2018-03-08T15:15:13.863Z,45.60
2018-03-08T15:17:41.480Z,45.30
2018-03-08T15:20:09.068Z,45.60
2018-03-08T15:22:36.673Z,45.60
2018-03-08T15:25:05.080Z,46.00
2018-03-08T15:27:32.697Z,45.90
2018-03-08T15:30:01.108Z,47.40
2018-03-08T15:32:28.686Z,47.40
2018-03-08T15:34:56.275Z,47.70
2018-03-08T15:37:23.886Z,48.00
2018-03-08T15:39:51.518Z,47.90
2018-03-08T15:42:19.090Z,48.20
2018-03-08T15:44:46.676Z,48.70
2018-03-08T15:47:14.306Z,47.70
2018-03-08T15:49:42.650Z,48.20
2018-03-08T15:52:13.116Z,47.60
2018-03-08T15:54:41.459Z,50.00
2018-03-08T15:57:09.091Z,49.80
2018-03-08T15:59:36.735Z,50.10
2018-03-08T16:02:04.350Z,50.20
2018-03-08T16:04:31.957Z,50.30
2018-03-08T16:07:14.422Z,50.70
2018-03-08T16:09:53.904Z,51.40
2018-03-08T16:12:21.502Z,51.50
2018-03-08T16:14:49.143Z,52.40
2018-03-08T16:17:16.784Z,52.80
2018-03-08T16:19:44.339Z,53.80
2018-03-08T16:22:11.984Z,55.80
2018-03-08T16:24:40.348Z,55.60
2018-03-08T16:27:07.984Z,55.50
2018-03-08T16:29:35.603Z,54.50
2018-03-08T16:32:03.152Z,55.90
2018-03-08T16:34:31.519Z,57.30
2018-03-08T16:36:59.919Z,57.60
2018-03-08T16:39:27.494Z,57.50
2018-03-08T16:41:55.052Z,57.80
2018-03-08T16:44:22.647Z,57.70
2018-03-08T16:46:50.243Z,57.10
2018-03-08T16:49:18.645Z,58.00
2018-03-08T16:51:46.248Z,57.80
2018-03-08T16:54:13.823Z,57.70
2018-03-08T16:56:41.443Z,57.60
2018-03-08T17:02:04.663Z,60.60
2018-03-08T17:07:45.921Z,61.30
2018-03-08T17:10:13.469Z,62.30
2018-03-08T17:12:41.052Z,63.50
2018-03-08T17:15:08.620Z,65.60
2018-03-08T17:17:37.217Z,66.50
2018-03-08T17:20:04.880Z,67.10
2018-03-08T17:22:32.561Z,67.30
2018-03-08T17:25:00.160Z,68.10
2018-03-08T17:27:27.769Z,69.40
2018-03-08T17:29:55.362Z,70.80
2018-03-08T17:32:22.995Z,72.20
2018-03-08T17:34:50.571Z,72.40
2018-03-08T17:37:18.960Z,73.10
2018-03-08T17:39:46.574Z,73.00
2018-03-08T17:42:28.369Z,73.70
2018-03-08T17:45:04.415Z,74.70
2018-03-08T17:47:34.081Z,74.00
2018-03-08T17:50:01.713Z,74.70
2018-03-08T17:52:30.093Z,75.70
2018-03-08T17:54:58.456Z,75.10
2018-03-08T17:57:26.139Z,74.90
2018-03-08T17:59:57.688Z,74.90
2018-03-08T18:02:26.061Z,73.70
2018-03-08T18:04:54.478Z,75.80
2018-03-08T18:07:22.834Z,75.70
2018-03-08T18:09:50.482Z,75.70
2018-03-08T18:12:18.859Z,74.80
2018-03-08T18:14:47.272Z,74.80
2018-03-08T18:17:14.868Z,74.00
2018-03-08T18:19:42.496Z,73.80
2018-03-08T18:22:10.116Z,73.90
2018-03-08T18:24:38.468Z,72.90
2018-03-08T18:27:06.080Z,72.80
2018-03-08T18:29:34.284Z,72.40
2018-03-08T18:32:01.916Z,72.90
2018-03-08T18:34:29.491Z,73.50
2018-03-08T18:36:57.081Z,73.90
2018-03-08T18:39:24.680Z,74.30
2018-03-08T18:41:53.051Z,75.20
2018-03-08T18:44:22.444Z,75.10
2018-03-08T18:46:50.038Z,74.90
2018-03-08T18:49:17.620Z,74.60
2018-03-08T18:51:45.253Z,74.50
2018-03-08T18:54:12.858Z,75.60
2018-03-08T18:56:40.445Z,76.00
2018-03-08T18:59:08.050Z,75.30
2018-03-08T19:01:35.663Z,75.60
2018-03-08T19:04:03.308Z,76.70
2018-03-08T19:06:30.933Z,78.10
2018-03-08T19:08:58.539Z,78.90
2018-03-08T19:11:27.219Z,79.70
2018-03-08T19:14:08.164Z,79.60
2018-03-08T19:16:35.775Z,80.50
2018-03-08T19:19:03.419Z,81.20
2018-03-08T19:21:30.986Z,81.00
2018-03-08T19:23:58.624Z,81.50
2018-03-08T19:26:26.189Z,81.40
2018-03-08T19:28:53.794Z,81.20
2018-03-08T19:31:22.167Z,80.30
2018-03-08T19:36:59.782Z,80.50
2018-03-08T19:39:28.183Z,79.40
2018-03-08T19:41:55.803Z,79.40
2018-03-08T19:44:23.417Z,79.60
2018-03-08T19:46:51.035Z,78.50
2018-03-08T19:49:18.616Z,78.00
2018-03-08T19:51:46.240Z,78.40
2018-03-08T19:54:13.843Z,78.10
2018-03-08T19:56:41.479Z,78.00
2018-03-08T19:59:09.792Z,77.90
2018-03-08T20:01:37.393Z,77.80
2018-03-08T20:04:05.030Z,78.50
2018-03-08T20:06:32.634Z,78.60
2018-03-08T20:09:01.009Z,79.30
2018-03-08T20:11:28.610Z,79.30
2018-03-08T20:13:56.233Z,78.50
2018-03-08T20:16:24.588Z,78.60
2018-03-08T20:18:52.190Z,79.10
2018-03-08T20:21:20.582Z,77.30
2018-03-08T20:23:48.218Z,77.20
2018-03-08T20:26:16.664Z,74.90
2018-03-08T20:28:44.262Z,74.90
2018-03-08T20:31:12.609Z,73.40
2018-03-08T20:33:40.198Z,73.30
2018-03-08T20:36:07.840Z,73.20
2018-03-08T20:38:35.450Z,72.60
2018-03-08T20:41:03.062Z,72.60
2018-03-08T20:43:30.696Z,72.70
2018-03-08T20:45:58.321Z,72.30
2018-03-08T20:48:25.927Z,70.50
2018-03-08T20:50:53.516Z,71.50
2018-03-08T20:53:21.877Z,70.40
2018-03-08T20:55:49.517Z,70.30
2018-03-08T20:58:17.103Z,69.80
2018-03-08T21:00:44.716Z,69.30
2018-03-08T21:03:12.288Z,69.20
2018-03-08T21:05:39.903Z,68.10
2018-03-08T21:08:08.287Z,67.10
2018-03-08T21:10:37.823Z,67.10
2018-03-08T21:13:05.413Z,67.50
2018-03-08T21:15:33.002Z,67.30
2018-03-08T21:18:01.408Z,66.50
2018-03-08T21:20:28.970Z,66.40
2018-03-08T21:22:56.609Z,66.40
2018-03-08T21:25:24.256Z,66.20
2018-03-08T21:27:52.619Z,66.70
2018-03-08T21:30:20.252Z,66.50
2018-03-08T21:32:47.859Z,67.20
2018-03-08T21:35:16.225Z,67.40
2018-03-08T21:37:43.848Z,67.10
2018-03-08T21:40:11.533Z,67.80
2018-03-08T21:42:39.119Z,67.50
2018-03-08T21:45:07.518Z,67.50
2018-03-08T21:47:35.094Z,67.30
2018-03-08T21:50:02.719Z,67.30
2018-03-08T21:52:30.335Z,68.40
2018-03-08T21:54:57.948Z,69.30
2018-03-08T21:57:26.314Z,68.60
2018-03-08T21:59:54.710Z,67.90
2018-03-08T22:02:23.107Z,67.70
2018-03-08T22:04:50.696Z,67.60
2018-03-08T22:07:18.295Z,66.80
2018-03-08T22:09:46.633Z,66.60
2018-03-08T22:12:14.236Z,66.50
2018-03-08T22:14:41.823Z,66.60
2018-03-08T22:17:09.382Z,66.10
2018-03-08T22:19:36.971Z,66.30
2018-03-08T22:22:04.553Z,66.40
2018-03-08T22:24:32.121Z,65.30
2018-03-08T22:26:59.972Z,65.70
2018-03-08T22:29:27.543Z,65.60
2018-03-08T22:31:55.105Z,65.70
2018-03-08T22:34:22.742Z,65.00
2018-03-08T22:36:50.300Z,65.10
2018-03-08T22:39:17.880Z,64.90
2018-03-08T22:41:45.447Z,65.40
2018-03-08T22:44:13.045Z,65.40
2018-03-08T22:46:40.619Z,66.00
2018-03-08T22:49:08.216Z,66.00
2018-03-08T22:51:35.767Z,67.00
2018-03-08T22:54:03.406Z,67.40
2018-03-08T22:56:31.002Z,67.50
2018-03-08T22:58:58.618Z,68.60
2018-03-08T23:04:29.681Z,69.10
2018-03-08T23:06:57.198Z,70.20
2018-03-08T23:09:24.739Z,71.00
2018-03-08T23:11:52.371Z,72.60
2018-03-08T23:14:19.951Z,73.30
2018-03-08T23:16:47.591Z,74.00
2018-03-08T23:19:15.213Z,74.30
2018-03-08T23:21:42.879Z,74.90
2018-03-08T23:24:10.460Z,75.20
2018-03-08T23:26:38.067Z,76.60
2018-03-08T23:29:05.675Z,76.90
2018-03-08T23:31:33.243Z,76.60
2018-03-08T23:34:01.487Z,77.00
2018-03-08T23:36:29.068Z,78.00
2018-03-08T23:38:56.665Z,79.10
2018-03-08T23:41:24.238Z,80.50
2018-03-08T23:43:52.582Z,82.20
2018-03-08T23:46:20.168Z,85.20
2018-03-08T23:48:47.787Z,87.10
2018-03-08T23:51:15.404Z,88.80
2018-03-08T23:53:43.039Z,90.00
2018-03-08T23:56:10.614Z,90.60
2018-03-08T23:58:38.225Z,90.80
